Terminal Aerodrome Forecast
Issued by NWS

Home | Current Version | Previous Version | Text Only | Print | Product List | Glossary On
Versions: 1 2 3 4 5 6 7 8 9 10 11 12 13 14 15 16 17
000
FTUS46 KSEW 161800 AAA
TAFOLM
TAF AMD
KOLM 161835Z 1619/1718 21011KT 6SM -RA BR SCT008 BKN015 OVC030
      TEMPO 1619/1622 2SM -RA BR BKN008 OVC015
     FM170000 21009KT 5SM -RA BR SCT015 BKN030 OVC050
     FM170600 19006KT 2SM -RA BR SCT006 OVC015=

USA.gov is the U.S. government's official web portal to all federal, state and local government web resources and services.